Time;durP1;ratioP1;P1;durP2;ratioP2;P2;SDS_P1;SDS_P2;PMS_P1;PMS_P2;Temp;Humidity;BMP_temperature;BMP_pressure;BME280_temperature;BME280_humidity;BME280_pressure;Samples;Min_cycle;Max_cycle;Signal;HPM_P1;HPM_P2
2022/03/12 00:01:37;;;;;;;9.23;7.17;;;7.60;32.40;;;;;;6243780;23;20372;-70
2022/03/12 00:04:23;;;;;;;11.20;7.00;;;7.60;31.40;;;;;;6243078;23;20430;-70
2022/03/12 00:07:12;;;;;;;11.37;8.53;;;7.50;31.90;;;;;;6243207;22;20868;-69
2022/03/12 00:09:58;;;;;;;10.40;7.40;;;7.30;30.20;;;;;;6241269;23;20375;-70
2022/03/12 00:12:44;;;;;;;14.53;7.80;;;7.30;32.40;;;;;;6243953;23;20359;-69
2022/03/12 00:15:37;;;;;;;14.60;7.30;;;7.40;34.30;;;;;;6243014;22;20484;-70
2022/03/12 00:18:25;;;;;;;11.67;6.77;;;7.40;35.30;;;;;;6241292;23;20473;-70
2022/03/12 00:21:13;;;;;;;11.97;7.83;;;7.30;36.40;;;;;;6243115;23;20423;-69
2022/03/12 00:24:00;;;;;;;13.90;8.37;;;7.30;35.80;;;;;;6242412;23;20371;-69
2022/03/12 00:26:48;;;;;;;10.83;7.63;;;7.20;36.00;;;;;;6243663;22;20482;-69
2022/03/12 00:29:35;;;;;;;13.67;8.10;;;7.20;36.80;;;;;;6241920;23;20426;-69
2022/03/12 00:32:21;;;;;;;9.87;7.33;;;7.20;38.20;;;;;;6244194;23;20376;-70
2022/03/12 00:35:08;;;;;;;15.50;7.10;;;7.10;38.40;;;;;;6241383;22;20527;-69
2022/03/12 00:37:54;;;;;;;11.30;7.10;;;7.00;38.20;;;;;;6241390;23;20750;-69
2022/03/12 00:40:41;;;;;;;10.23;7.13;;;6.90;40.00;;;;;;6243553;23;20393;-69
2022/03/12 00:43:27;;;;;;;12.43;7.43;;;6.90;36.60;;;;;;6242923;23;20401;-70
2022/03/12 00:46:12;;;;;;;16.10;8.23;;;6.90;36.40;;;;;;6242918;22;20504;-70
2022/03/12 00:48:58;;;;;;;12.97;8.13;;;6.90;36.40;;;;;;6240769;23;20433;-70
2022/03/12 00:51:44;;;;;;;16.07;7.70;;;6.90;38.90;;;;;;6243522;23;20390;-69
2022/03/12 00:54:30;;;;;;;14.00;7.97;;;6.90;38.40;;;;;;6242473;23;20375;-69
2022/03/12 00:57:17;;;;;;;11.63;7.67;;;6.90;39.60;;;;;;6241409;22;20485;-69
2022/03/12 01:00:05;;;;;;;10.07;7.57;;;7.00;42.30;;;;;;6242453;23;20350;-69
2022/03/12 01:02:51;;;;;;;16.17;7.60;;;6.80;43.00;;;;;;6242998;23;20350;-69
2022/03/12 01:05:57;;;;;;;12.60;7.03;;;6.90;43.60;;;;;;6243095;22;20377;-69
2022/03/12 01:08:42;;;;;;;11.20;7.30;;;6.90;42.60;;;;;;6241110;23;20427;-69
2022/03/12 01:11:28;;;;;;;13.00;8.33;;;6.90;42.10;;;;;;6242749;23;20527;-70
2022/03/12 01:14:16;;;;;;;10.80;7.57;;;6.80;40.10;;;;;;6242792;23;20359;-69
2022/03/12 01:17:01;;;;;;;13.03;7.23;;;6.80;40.80;;;;;;6241187;22;20443;-70
2022/03/12 01:19:47;;;;;;;13.27;8.37;;;6.90;40.70;;;;;;6241276;23;20357;-69
2022/03/12 01:22:38;;;;;;;14.40;8.00;;;6.90;39.80;;;;;;6242280;23;20383;-69
2022/03/12 01:25:24;;;;;;;12.67;8.30;;;6.80;39.60;;;;;;6242320;22;20436;-69
2022/03/12 01:28:11;;;;;;;14.23;7.20;;;6.80;40.70;;;;;;6240289;23;20413;-69
2022/03/12 01:30:58;;;;;;;12.83;7.67;;;6.90;39.40;;;;;;6242893;23;20375;-69
2022/03/12 01:33:44;;;;;;;10.60;7.00;;;6.90;39.60;;;;;;6242302;23;20358;-69
2022/03/12 01:36:30;;;;;;;12.90;7.27;;;6.90;38.10;;;;;;6240532;22;20409;-70
2022/03/12 01:39:16;;;;;;;11.13;7.33;;;6.90;40.10;;;;;;6241319;23;20392;-69
2022/03/12 01:42:04;;;;;;;11.20;7.93;;;6.90;37.80;;;;;;6242800;23;20920;-69
2022/03/12 01:44:50;;;;;;;12.93;7.20;;;6.90;38.30;;;;;;6242202;23;20376;-69
2022/03/12 01:47:37;;;;;;;10.30;7.47;;;7.00;39.90;;;;;;6240788;23;20344;-69
2022/03/12 01:50:26;;;;;;;10.30;6.80;;;7.10;40.90;;;;;;6242197;23;20399;-69
2022/03/12 01:53:12;;;;;;;10.90;7.70;;;7.10;40.40;;;;;;6241736;23;20351;-68
2022/03/12 01:55:58;;;;;;;12.23;7.67;;;7.00;40.80;;;;;;6242053;22;20442;-69
2022/03/12 01:58:47;;;;;;;15.00;7.70;;;6.90;40.70;;;;;;6241840;23;20397;-69
2022/03/12 02:01:33;;;;;;;14.90;7.73;;;7.00;40.80;;;;;;6242151;23;20375;-69
2022/03/12 02:04:22;;;;;;;17.33;8.50;;;7.00;40.80;;;;;;6241921;23;20440;-68
2022/03/12 02:07:07;;;;;;;10.50;7.23;;;6.90;40.70;;;;;;6239754;22;20491;-69
2022/03/12 02:09:53;;;;;;;11.57;7.10;;;7.00;41.60;;;;;;6242401;23;20742;-68
2022/03/12 02:12:39;;;;;;;10.37;7.77;;;7.00;42.30;;;;;;6242742;23;20458;-69
2022/03/12 02:15:24;;;;;;;10.27;7.23;;;6.90;42.60;;;;;;6241528;22;20389;-69
2022/03/12 02:18:13;;;;;;;11.47;7.73;;;6.80;42.20;;;;;;6238290;23;20436;-68
2022/03/12 02:21:00;;;;;;;12.73;7.73;;;6.90;43.00;;;;;;6242413;23;20427;-69
2022/03/12 02:23:48;;;;;;;9.57;6.77;;;7.00;42.70;;;;;;6242134;23;20379;-69
2022/03/12 02:26:34;;;;;;;13.57;8.03;;;6.90;40.70;;;;;;6240401;22;20454;-69
2022/03/12 02:29:22;;;;;;;14.10;8.33;;;6.90;41.80;;;;;;6242129;23;20842;-68
2022/03/12 02:32:10;;;;;;;12.70;7.63;;;6.90;43.50;;;;;;6242154;23;20447;-69
2022/03/12 02:34:58;;;;;;;12.80;7.67;;;6.80;43.90;;;;;;6239914;23;20362;-69
2022/03/12 02:37:47;;;;;;;14.43;8.40;;;6.80;42.60;;;;;;6240311;23;20735;-68
2022/03/12 02:40:35;;;;;;;17.30;8.10;;;6.70;42.60;;;;;;6242693;23;20376;-69
2022/03/12 02:43:26;;;;;;;14.03;8.23;;;6.60;44.00;;;;;;6242054;23;20405;-69
2022/03/12 02:46:13;;;;;;;19.23;7.97;;;6.70;44.70;;;;;;6240334;22;20468;-69
2022/03/12 02:49:00;;;;;;;12.07;7.50;;;6.80;45.70;;;;;;6244327;23;20387;-68
2022/03/12 02:51:45;;;;;;;12.87;8.20;;;6.90;44.30;;;;;;6244389;23;20717;-69
2022/03/12 02:54:31;;;;;;;21.97;8.47;;;6.80;43.60;;;;;;6244126;23;20683;-69
2022/03/12 02:57:20;;;;;;;12.90;8.07;;;6.80;45.20;;;;;;6241761;22;20518;-68
2022/03/12 03:00:06;;;;;;;11.60;7.70;;;6.80;45.40;;;;;;6244012;23;20464;-68
2022/03/12 03:02:54;;;;;;;22.63;8.40;;;6.80;45.60;;;;;;6244161;23;20375;-69
2022/03/12 03:05:46;;;;;;;16.00;9.47;;;6.60;45.30;;;;;;6242381;22;20485;-70
2022/03/12 03:08:34;;;;;;;13.83;9.00;;;6.50;47.00;;;;;;6243829;23;20353;-69
2022/03/12 03:11:20;;;;;;;12.00;8.53;;;6.60;47.10;;;;;;6244107;23;20347;-70
2022/03/12 03:14:12;;;;;;;20.63;8.07;;;6.50;46.30;;;;;;6243158;23;20379;-69
2022/03/12 03:17:00;;;;;;;12.60;8.27;;;6.50;48.40;;;;;;6241022;22;21043;-68
2022/03/12 03:19:46;;;;;;;8.83;6.93;;;6.50;47.10;;;;;;6243769;23;20375;-70
2022/03/12 03:22:32;;;;;;;12.50;8.43;;;6.60;47.50;;;;;;6244231;23;20346;-69
2022/03/12 03:25:17;;;;;;;13.03;8.07;;;6.50;48.40;;;;;;6241219;22;20460;-69
2022/03/12 03:28:04;;;;;;;15.93;7.70;;;6.50;48.20;;;;;;6243205;23;20794;-69
2022/03/12 03:30:51;;;;;;;11.80;7.87;;;6.50;47.50;;;;;;6242506;23;20488;-68
2022/03/12 03:33:37;;;;;;;10.77;7.27;;;6.40;49.10;;;;;;6243270;23;20423;-68
2022/03/12 03:36:23;;;;;;;10.67;8.13;;;6.30;50.70;;;;;;6240104;22;20434;-68
2022/03/12 03:39:09;;;;;;;10.50;7.77;;;6.20;51.40;;;;;;6243260;23;20845;-68
2022/03/12 03:41:54;;;;;;;14.03;7.60;;;6.20;52.00;;;;;;6243668;23;20375;-68
2022/03/12 03:44:40;;;;;;;14.90;8.73;;;6.20;51.50;;;;;;6241972;23;20398;-69
2022/03/12 03:47:27;;;;;;;12.20;8.27;;;6.10;53.10;;;;;;6242937;23;20438;-69
2022/03/12 03:50:13;;;;;;;14.30;9.27;;;6.00;54.90;;;;;;6243691;23;20347;-69
2022/03/12 03:53:02;;;;;;;12.57;8.37;;;5.90;53.40;;;;;;6243522;23;20354;-69
2022/03/12 03:55:49;;;;;;;18.67;8.97;;;5.90;52.80;;;;;;6241498;22;20429;-68
2022/03/12 03:58:37;;;;;;;11.43;7.87;;;5.80;53.80;;;;;;6243373;23;20739;-69
2022/03/12 04:01:22;;;;;;;12.33;8.13;;;5.80;55.30;;;;;;6243607;23;20375;-69
2022/03/12 04:04:12;;;;;;;15.83;8.50;;;5.90;53.90;;;;;;6241699;23;20755;-70
2022/03/12 04:06:58;;;;;;;16.03;9.13;;;6.00;55.60;;;;;;6243543;22;20535;-69
2022/03/12 04:09:44;;;;;;;14.00;9.17;;;5.80;56.00;;;;;;6243578;23;20351;-68
2022/03/12 04:12:30;;;;;;;12.47;8.73;;;5.80;55.20;;;;;;6243410;23;20439;-69
2022/03/12 04:15:17;;;;;;;17.90;8.67;;;5.70;57.00;;;;;;6240480;22;20383;-68
2022/03/12 04:18:04;;;;;;;13.20;8.77;;;5.60;57.40;;;;;;6243026;23;20519;-70
2022/03/12 04:20:51;;;;;;;14.10;8.10;;;5.60;55.50;;;;;;6243538;23;20358;-68
2022/03/12 04:23:37;;;;;;;13.33;9.07;;;5.70;56.70;;;;;;6242983;23;20474;-69
2022/03/12 04:26:23;;;;;;;12.60;8.23;;;5.70;56.60;;;;;;6242017;22;20415;-69
2022/03/12 04:29:09;;;;;;;10.43;7.23;;;5.70;55.70;;;;;;6243453;23;20376;-68
2022/03/12 04:31:55;;;;;;;14.40;8.77;;;5.60;56.60;;;;;;6243399;23;20427;-70
2022/03/12 04:34:41;;;;;;;11.70;8.30;;;5.40;56.40;;;;;;6242049;23;20349;-69
2022/03/12 04:37:28;;;;;;;14.07;8.83;;;5.30;57.50;;;;;;6243763;23;20397;-69
2022/03/12 04:40:26;;;;;;;18.83;9.23;;;5.20;56.90;;;;;;6243149;23;20378;-69
2022/03/12 04:43:12;;;;;;;15.50;9.73;;;5.10;57.20;;;;;;6242276;23;20418;-68
2022/03/12 04:46:00;;;;;;;14.50;9.40;;;5.00;56.90;;;;;;6241437;22;20406;-68
2022/03/12 04:48:45;;;;;;;10.80;7.50;;;5.00;57.90;;;;;;6243251;23;20434;-69
2022/03/12 04:51:31;;;;;;;11.00;8.40;;;5.10;57.20;;;;;;6242833;23;20351;-68
2022/03/12 04:54:18;;;;;;;12.70;9.07;;;5.00;57.80;;;;;;6240007;23;20413;-69
2022/03/12 04:57:05;;;;;;;15.57;9.20;;;4.90;58.30;;;;;;6242612;22;20497;-69
2022/03/12 04:59:51;;;;;;;10.70;7.53;;;4.80;57.70;;;;;;6243082;23;20829;-68
2022/03/12 05:02:37;;;;;;;11.30;8.00;;;4.80;58.80;;;;;;6243521;23;20435;-69
2022/03/12 05:05:23;;;;;;;13.33;8.13;;;4.70;58.10;;;;;;6240408;22;20868;-68
2022/03/12 05:08:10;;;;;;;10.93;8.03;;;4.60;60.00;;;;;;6242655;23;20395;-69
2022/03/12 05:10:58;;;;;;;12.13;7.87;;;4.50;59.90;;;;;;6242796;23;20436;-68
2022/03/12 05:13:44;;;;;;;11.47;8.10;;;4.50;59.30;;;;;;6240584;23;20380;-69
2022/03/12 05:16:31;;;;;;;13.73;9.30;;;4.60;60.10;;;;;;6242438;22;20768;-69
2022/03/12 05:19:17;;;;;;;11.33;7.70;;;4.50;59.10;;;;;;6241754;23;20767;-68
2022/03/12 05:22:04;;;;;;;14.13;8.90;;;4.50;60.00;;;;;;6242816;23;20346;-69
2022/03/12 05:24:50;;;;;;;11.60;8.60;;;4.50;59.50;;;;;;6239921;23;20357;-69
2022/03/12 05:27:37;;;;;;;13.03;9.23;;;4.30;60.90;;;;;;6242725;23;20378;-69
2022/03/12 05:30:23;;;;;;;13.27;9.10;;;4.20;60.70;;;;;;6242557;23;20383;-68
2022/03/12 05:33:09;;;;;;;16.43;8.50;;;4.00;62.40;;;;;;6239524;23;20425;-69
2022/03/12 05:35:55;;;;;;;9.67;7.77;;;4.00;62.80;;;;;;6242501;22;20404;-69
2022/03/12 05:38:40;;;;;;;16.30;8.67;;;3.90;63.40;;;;;;6242529;23;20414;-68
2022/03/12 05:41:26;;;;;;;15.23;9.10;;;4.00;63.10;;;;;;6242184;23;20387;-68
2022/03/12 05:44:14;;;;;;;11.47;8.37;;;4.00;62.90;;;;;;6239830;23;20375;-68
2022/03/12 05:46:59;;;;;;;14.17;9.03;;;3.90;63.70;;;;;;6242369;22;20402;-68
2022/03/12 05:49:45;;;;;;;12.17;8.50;;;3.90;64.00;;;;;;6242901;23;20908;-68
2022/03/12 05:52:31;;;;;;;13.53;9.13;;;3.80;62.70;;;;;;6241012;23;20483;-69
2022/03/12 05:55:19;;;;;;;13.47;9.43;;;3.80;64.40;;;;;;6240645;22;20852;-68
2022/03/12 05:58:06;;;;;;;13.37;9.63;;;3.90;64.80;;;;;;6242243;23;20422;-69
2022/03/12 06:00:54;;;;;;;12.50;8.33;;;3.90;64.10;;;;;;6242490;23;20934;-69
2022/03/12 06:03:40;;;;;;;12.50;8.57;;;4.00;64.70;;;;;;6239847;23;20375;-69
2022/03/12 06:06:30;;;;;;;12.87;8.43;;;4.20;65.10;;;;;;6242168;22;20935;-69
2022/03/12 06:09:16;;;;;;;12.57;8.53;;;4.20;64.00;;;;;;6241834;23;20893;-69
2022/03/12 06:12:02;;;;;;;11.33;8.13;;;4.30;64.30;;;;;;6241489;23;20375;-69
2022/03/12 06:14:55;;;;;;;13.93;8.43;;;4.30;64.10;;;;;;6242077;23;20352;-68
2022/03/12 06:17:42;;;;;;;16.40;8.90;;;4.40;64.50;;;;;;6242564;23;20511;-68
2022/03/12 06:20:28;;;;;;;13.70;8.47;;;4.50;63.00;;;;;;6241674;23;20379;-69
2022/03/12 06:23:13;;;;;;;12.43;7.80;;;4.50;62.90;;;;;;6239492;23;20419;-69
2022/03/12 06:26:01;;;;;;;12.87;9.13;;;4.60;63.90;;;;;;6242766;22;20414;-69
2022/03/12 06:28:46;;;;;;;13.27;8.40;;;4.50;63.20;;;;;;6242439;23;20925;-69
2022/03/12 06:31:33;;;;;;;14.27;8.43;;;4.50;62.60;;;;;;6241743;23;20429;-67
2022/03/12 06:34:20;;;;;;;16.13;9.10;;;4.60;63.20;;;;;;6241042;23;20460;-69
2022/03/12 06:37:07;;;;;;;10.83;7.70;;;4.70;64.20;;;;;;6241591;22;20564;-70
2022/03/12 06:39:55;;;;;;;13.23;9.30;;;4.80;62.80;;;;;;6242762;23;20388;-67
2022/03/12 06:42:40;;;;;;;11.60;8.67;;;4.90;62.60;;;;;;6239979;23;20459;-71
2022/03/12 06:45:28;;;;;;;11.73;8.40;;;5.00;61.10;;;;;;6241691;22;20413;-70
2022/03/12 06:48:14;;;;;;;14.83;9.60;;;5.00;63.60;;;;;;6241854;23;20393;-68
2022/03/12 06:51:01;;;;;;;12.20;8.50;;;5.00;63.60;;;;;;6242292;23;20346;-69
2022/03/12 06:53:47;;;;;;;16.97;9.57;;;5.00;63.50;;;;;;6240793;23;20776;-70
2022/03/12 06:56:38;;;;;;;14.60;9.43;;;5.10;63.60;;;;;;6242125;22;20593;-70
2022/03/12 06:59:24;;;;;;;18.97;10.00;;;5.20;63.70;;;;;;6241467;23;21039;-70
2022/03/12 07:02:10;;;;;;;17.90;9.20;;;5.30;63.40;;;;;;6240117;23;20385;-70
2022/03/12 07:04:55;;;;;;;15.97;9.90;;;5.40;62.80;;;;;;6241631;23;20343;-69
2022/03/12 07:07:42;;;;;;;14.37;8.70;;;5.40;61.80;;;;;;6242031;23;20412;-70
2022/03/12 07:10:28;;;;;;;11.20;8.13;;;5.60;62.40;;;;;;6241789;23;20429;-69
2022/03/12 07:13:14;;;;;;;18.40;10.47;;;5.70;61.00;;;;;;6239622;23;20415;-68
2022/03/12 07:16:00;;;;;;;14.67;9.40;;;5.80;58.50;;;;;;6241757;22;20378;-70
2022/03/12 07:18:46;;;;;;;13.63;10.23;;;5.90;56.10;;;;;;6242062;23;20426;-68
2022/03/12 07:21:31;;;;;;;12.33;9.63;;;6.00;55.10;;;;;;6240459;23;20374;-69
2022/03/12 07:24:18;;;;;;;13.97;9.77;;;6.00;57.60;;;;;;6241431;23;20418;-70
2022/03/12 07:27:05;;;;;;;19.40;9.83;;;6.10;56.20;;;;;;6241709;22;20381;-69
2022/03/12 07:29:50;;;;;;;16.73;10.67;;;6.20;55.60;;;;;;6242768;23;20371;-69
2022/03/12 07:32:39;;;;;;;12.77;9.93;;;6.50;55.50;;;;;;6240286;23;20357;-69
2022/03/12 07:35:26;;;;;;;13.00;9.30;;;6.60;54.70;;;;;;6242042;22;20415;-70
2022/03/12 07:38:12;;;;;;;15.20;9.50;;;6.80;53.80;;;;;;6243434;23;20527;-70
2022/03/12 07:40:59;;;;;;;16.40;9.60;;;6.90;55.90;;;;;;6241304;23;20438;-70
2022/03/12 07:43:45;;;;;;;10.57;8.20;;;7.10;54.10;;;;;;6242909;23;20400;-69
2022/03/12 07:46:31;;;;;;;14.67;9.17;;;7.30;48.70;;;;;;6243809;22;20450;-69
2022/03/12 07:49:17;;;;;;;11.67;8.20;;;7.50;43.70;;;;;;6243221;23;20375;-68
2022/03/12 07:52:03;;;;;;;15.10;9.60;;;7.70;44.20;;;;;;6241437;23;20474;-68
2022/03/12 07:54:48;;;;;;;12.80;8.53;;;7.70;44.10;;;;;;6242835;23;20829;-70
2022/03/12 07:57:36;;;;;;;12.33;7.57;;;7.80;43.20;;;;;;6243934;23;20396;-70
2022/03/12 08:00:28;;;;;;;13.77;8.90;;;7.90;41.70;;;;;;6241141;23;20354;-69
2022/03/12 08:03:14;;;;;;;11.63;8.63;;;8.00;41.60;;;;;;6242610;23;20963;-70
2022/03/12 08:06:00;;;;;;;13.37;8.60;;;8.10;40.00;;;;;;6243137;22;20415;-70
2022/03/12 08:08:46;;;;;;;15.47;8.70;;;8.10;39.70;;;;;;6243522;23;20350;-69
2022/03/12 08:11:32;;;;;;;14.10;9.37;;;8.30;40.00;;;;;;6240812;23;20712;-69
2022/03/12 08:14:22;;;;;;;17.30;8.47;;;8.40;39.70;;;;;;6242915;23;20861;-69
2022/03/12 08:17:08;;;;;;;14.50;8.30;;;8.50;39.40;;;;;;6241500;22;20389;-69
2022/03/12 08:19:54;;;;;;;12.30;8.23;;;8.60;39.60;;;;;;6242269;23;20394;-69
2022/03/12 08:22:42;;;;;;;12.30;8.30;;;8.70;39.00;;;;;;6243358;23;20736;-70
2022/03/12 08:25:28;;;;;;;13.87;8.17;;;8.80;38.30;;;;;;6242331;22;20386;-70
2022/03/12 08:28:14;;;;;;;14.03;8.60;;;9.00;39.00;;;;;;6243669;23;20380;-69
2022/03/12 08:31:02;;;;;;;13.47;8.83;;;9.00;37.80;;;;;;6242125;23;20366;-69
2022/03/12 08:33:47;;;;;;;12.60;8.80;;;9.10;37.70;;;;;;6241800;23;20354;-70
2022/03/12 08:36:33;;;;;;;14.23;9.23;;;9.20;37.90;;;;;;6244108;22;20508;-70
2022/03/12 08:39:19;;;;;;;16.83;9.43;;;9.30;37.90;;;;;;6244268;23;20419;-69
2022/03/12 08:42:05;;;;;;;14.27;8.97;;;9.40;38.40;;;;;;6244469;23;20420;-69
2022/03/12 08:44:51;;;;;;;14.13;9.13;;;9.50;37.70;;;;;;6241591;23;20350;-70
2022/03/12 08:47:39;;;;;;;15.50;9.40;;;9.70;37.20;;;;;;6244281;23;20782;-69
2022/03/12 08:50:25;;;;;;;15.90;9.20;;;9.80;38.20;;;;;;6244166;23;20419;-69
2022/03/12 08:53:11;;;;;;;11.77;8.40;;;10.00;36.90;;;;;;6242592;23;20379;-70
2022/03/12 08:56:00;;;;;;;14.80;9.07;;;10.10;36.00;;;;;;6243776;22;20429;-69
2022/03/12 08:58:46;;;;;;;14.83;8.70;;;10.20;36.40;;;;;;6243891;23;20486;-69
2022/03/12 09:01:32;;;;;;;17.97;9.63;;;10.30;36.20;;;;;;6243882;23;20375;-69
2022/03/12 09:04:19;;;;;;;15.27;8.87;;;10.50;35.40;;;;;;6240907;23;20386;-70
2022/03/12 09:07:05;;;;;;;17.60;9.50;;;10.60;35.50;;;;;;6243798;22;20395;-70
2022/03/12 09:09:54;;;;;;;14.67;8.53;;;10.60;35.20;;;;;;6242340;23;20347;-70
2022/03/12 09:12:39;;;;;;;20.23;10.47;;;10.70;35.20;;;;;;6242327;23;20377;-69
2022/03/12 09:15:26;;;;;;;15.20;9.27;;;10.70;35.80;;;;;;6242779;22;20492;-70
2022/03/12 09:18:12;;;;;;;15.63;9.17;;;10.80;35.30;;;;;;6243690;23;20397;-70
2022/03/12 09:20:59;;;;;;;13.90;9.40;;;10.80;36.20;;;;;;6243859;23;20478;-70
2022/03/12 09:23:46;;;;;;;15.57;9.47;;;11.00;36.00;;;;;;6241327;23;20382;-70
2022/03/12 09:26:31;;;;;;;16.20;10.03;;;11.10;35.10;;;;;;6244007;22;20502;-70
2022/03/12 09:29:17;;;;;;;12.13;8.60;;;11.20;35.40;;;;;;6243492;23;20442;-70
2022/03/12 09:32:05;;;;;;;17.10;9.67;;;11.30;35.40;;;;;;6239756;23;20347;-70
2022/03/12 09:34:51;;;;;;;15.90;10.10;;;11.40;34.50;;;;;;6238775;23;20350;-69
2022/03/12 09:37:38;;;;;;;13.73;8.67;;;11.60;32.50;;;;;;6242607;23;20383;-69
2022/03/12 09:40:23;;;;;;;13.30;9.40;;;11.70;33.80;;;;;;6242166;23;20454;-70
2022/03/12 09:43:10;;;;;;;14.33;10.37;;;11.80;34.10;;;;;;6238895;23;20406;-70
2022/03/12 09:45:57;;;;;;;13.90;9.93;;;12.00;34.30;;;;;;6242283;22;20382;-70
2022/03/12 09:48:43;;;;;;;15.17;9.90;;;12.10;33.40;;;;;;6242297;23;20428;-68
2022/03/12 09:51:29;;;;;;;14.53;9.10;;;12.30;34.30;;;;;;6238999;23;20367;-70
2022/03/12 09:54:18;;;;;;;15.83;9.73;;;12.50;33.40;;;;;;6241244;23;20351;-70
2022/03/12 09:57:04;;;;;;;13.37;8.83;;;12.60;33.10;;;;;;6241979;22;20478;-69
2022/03/12 09:59:50;;;;;;;14.47;9.47;;;12.80;32.90;;;;;;6242417;23;20420;-67
2022/03/12 10:02:36;;;;;;;11.70;9.10;;;12.90;32.00;;;;;;6240301;23;20397;-69
2022/03/12 10:05:21;;;;;;;14.80;9.77;;;13.00;32.10;;;;;;6242703;22;20427;-70
2022/03/12 10:08:07;;;;;;;15.40;9.37;;;13.10;32.20;;;;;;6242972;23;20342;-69
2022/03/12 10:10:54;;;;;;;15.60;9.80;;;13.20;32.30;;;;;;6240561;23;20440;-70
2022/03/12 10:13:40;;;;;;;14.40;9.10;;;13.20;32.30;;;;;;6241765;23;20853;-70
2022/03/12 10:16:29;;;;;;;15.03;8.87;;;13.40;32.50;;;;;;6242443;22;20414;-69
2022/03/12 10:19:15;;;;;;;14.30;9.80;;;13.50;32.60;;;;;;6242250;23;20401;-70
2022/03/12 10:22:01;;;;;;;14.43;9.33;;;13.50;32.60;;;;;;6240810;23;20462;-70
2022/03/12 10:24:47;;;;;;;12.97;9.23;;;13.70;32.50;;;;;;6242224;23;20378;-70
2022/03/12 10:27:35;;;;;;;12.60;8.90;;;13.80;32.90;;;;;;6242116;23;20383;-70
2022/03/12 10:30:22;;;;;;;12.77;9.43;;;13.90;30.50;;;;;;6238414;23;20353;-70
2022/03/12 10:33:07;;;;;;;12.37;8.80;;;14.00;31.20;;;;;;6240695;23;20387;-69
2022/03/12 10:35:54;;;;;;;11.93;8.70;;;14.20;32.30;;;;;;6239122;22;20418;-68
2022/03/12 10:38:41;;;;;;;16.10;8.97;;;14.50;31.60;;;;;;6238677;23;20590;-67
2022/03/12 10:41:31;;;;;;;25.00;9.40;;;14.50;31.20;;;;;;6238680;23;20387;-70
2022/03/12 10:44:22;;;;;;;11.60;8.70;;;14.50;30.20;;;;;;6238281;23;20384;-68
2022/03/12 10:47:18;;;;;;;12.80;9.70;;;14.50;30.90;;;;;;6238976;22;20438;-70
2022/03/12 10:50:07;;;;;;;13.83;8.70;;;14.60;30.60;;;;;;6237965;23;20371;-68
2022/03/12 10:52:56;;;;;;;16.80;9.53;;;14.50;32.30;;;;;;6238116;23;20383;-70
2022/03/12 10:55:43;;;;;;;15.23;9.17;;;14.50;32.20;;;;;;6238970;22;20430;-69
2022/03/12 10:58:29;;;;;;;10.67;8.27;;;14.60;31.60;;;;;;6241232;23;20420;-69
2022/03/12 11:01:24;;;;;;;13.60;8.37;;;14.90;31.80;;;;;;6240714;23;20377;-69
2022/03/12 11:04:18;;;;;;;13.27;8.40;;;15.10;31.90;;;;;;6242214;23;20862;-70
2022/03/12 11:07:23;;;;;;;11.20;8.33;;;15.10;30.00;;;;;;6242303;22;20591;-69
2022/03/12 11:10:09;;;;;;;10.77;7.90;;;15.20;31.90;;;;;;6242925;23;20357;-70
2022/03/12 11:12:56;;;;;;;12.60;8.10;;;15.40;31.90;;;;;;6242734;23;20778;-70
2022/03/12 11:15:42;;;;;;;12.17;9.07;;;15.40;31.70;;;;;;6242420;22;20377;-70
2022/03/12 11:18:29;;;;;;;15.03;7.17;;;15.50;31.90;;;;;;6243259;23;20430;-70
2022/03/12 11:21:25;;;;;;;15.80;9.20;;;15.60;32.50;;;;;;6240568;23;20375;-69
2022/03/12 11:24:16;;;;;;;20.10;7.97;;;15.70;32.40;;;;;;6241290;23;20375;-70
2022/03/12 11:27:02;;;;;;;13.33;8.00;;;15.90;31.70;;;;;;6239242;22;20411;-69
2022/03/12 11:29:58;;;;;;;14.00;8.10;;;16.20;30.60;;;;;;6238029;23;20434;-69
2022/03/12 11:32:46;;;;;;;14.63;8.37;;;16.30;30.80;;;;;;6242525;23;21038;-70
2022/03/12 11:35:37;;;;;;;14.10;9.33;;;16.20;30.80;;;;;;6242488;22;20411;-68
2022/03/12 11:38:24;;;;;;;14.40;8.13;;;16.20;32.90;;;;;;6238795;23;20419;-69
2022/03/12 11:41:24;;;;;;;11.90;7.23;;;16.00;30.70;;;;;;6240700;23;20351;-69
2022/03/12 11:44:11;;;;;;;15.83;7.57;;;16.10;32.30;;;;;;6241556;23;20468;-69
2022/03/12 11:46:57;;;;;;;8.43;6.73;;;16.20;32.50;;;;;;6239455;22;20381;-68
2022/03/12 11:49:43;;;;;;;17.17;8.80;;;16.10;30.90;;;;;;6237484;23;20376;-70
2022/03/12 11:52:31;;;;;;;14.67;9.00;;;15.90;31.50;;;;;;6236604;23;20454;-68
2022/03/12 11:55:19;;;;;;;13.60;7.10;;;16.10;31.20;;;;;;6232112;22;20383;-69
2022/03/12 11:58:04;;;;;;;16.10;8.30;;;16.40;31.50;;;;;;6241155;23;20455;-70
2022/03/12 12:00:50;;;;;;;14.20;8.63;;;16.60;30.80;;;;;;6241894;23;20377;-70
2022/03/12 12:03:36;;;;;;;196.70;24.03;;;16.70;30.70;;;;;;6241173;23;20690;-70
2022/03/12 12:06:22;;;;;;;41.87;11.97;;;16.70;30.40;;;;;;6244314;22;20412;-70
2022/03/12 12:09:10;;;;;;;14.87;8.40;;;16.90;30.60;;;;;;6242501;23;20496;-69
2022/03/12 12:11:55;;;;;;;9.90;6.73;;;17.00;30.40;;;;;;6244505;23;20377;-69
2022/03/12 12:14:41;;;;;;;20.90;8.83;;;17.10;30.40;;;;;;6244440;23;20385;-70
2022/03/12 12:17:27;;;;;;;10.50;7.63;;;17.20;32.10;;;;;;6244912;23;20381;-71
2022/03/12 12:20:15;;;;;;;16.63;8.33;;;17.40;30.10;;;;;;6241847;23;20499;-70
2022/03/12 12:23:02;;;;;;;21.03;8.40;;;17.30;30.30;;;;;;6244541;23;20404;-70
2022/03/12 12:25:49;;;;;;;9.63;7.20;;;17.50;30.90;;;;;;6244557;22;20467;-70
2022/03/12 12:28:47;;;;;;;11.20;7.20;;;17.60;29.80;;;;;;6243120;23;20351;-68
2022/03/12 12:31:33;;;;;;;11.53;7.40;;;17.60;29.70;;;;;;6244546;23;20423;-70
2022/03/12 12:34:18;;;;;;;10.13;7.70;;;17.60;29.70;;;;;;6244015;23;20486;-70
2022/03/12 12:37:05;;;;;;;10.27;8.03;;;17.60;28.80;;;;;;6244442;22;20712;-70
2022/03/12 12:40:13;;;;;;;12.00;8.50;;;17.40;29.10;;;;;;6241949;23;20465;-70
2022/03/12 12:43:05;;;;;;;10.37;7.00;;;17.40;29.10;;;;;;6244141;23;20452;-70
2022/03/12 12:46:17;;;;;;;8.80;7.07;;;17.50;30.00;;;;;;6244360;22;20412;-70
2022/03/12 12:49:06;;;;;;;8.40;6.87;;;17.70;29.30;;;;;;6236190;22;20459;-85
2022/03/12 12:51:52;;;;;;;11.70;7.50;;;17.90;29.40;;;;;;6244684;23;20711;-83
2022/03/12 12:54:57;;;;;;;11.00;7.50;;;17.80;28.90;;;;;;6243752;23;20458;-86
2022/03/12 12:57:44;;;;;;;12.70;8.27;;;17.70;30.10;;;;;;6244298;22;20882;-85
2022/03/12 13:00:37;;;;;;;13.13;7.60;;;17.30;29.60;;;;;;6245156;23;20392;-88
2022/03/12 13:03:23;;;;;;;12.00;7.20;;;17.30;29.80;;;;;;6245670;23;20707;-86
2022/03/12 13:06:11;;;;;;;15.57;7.53;;;17.40;29.60;;;;;;6241989;23;20435;-85
2022/03/12 13:08:58;;;;;;;10.50;7.63;;;17.60;29.40;;;;;;6240140;22;20452;-85
2022/03/12 13:11:52;;;;;;;13.37;7.20;;;17.80;30.60;;;;;;6243870;23;20875;-85
2022/03/12 13:14:42;;;;;;;10.17;7.67;;;17.90;30.50;;;;;;6242856;23;20384;-85
2022/03/12 13:17:31;;;;;;;11.00;7.73;;;18.10;29.10;;;;;;6243615;22;20415;-85
2022/03/12 13:20:41;;;;;;;10.50;7.50;;;18.20;29.20;;;;;;6244671;23;20728;-85
2022/03/12 13:23:30;;;;;;;10.83;7.20;;;18.50;29.10;;;;;;6244082;23;20389;-85
2022/03/12 13:26:17;;;;;;;12.60;7.53;;;18.70;28.50;;;;;;6244252;23;20459;-84
2022/03/12 13:29:09;;;;;;;11.83;7.60;;;18.60;28.80;;;;;;6242094;22;20447;-85
2022/03/12 13:31:55;;;;;;;9.80;7.23;;;18.50;28.30;;;;;;6242099;23;20418;-85
2022/03/12 13:34:42;;;;;;;12.30;8.30;;;18.30;28.30;;;;;;6243608;23;20420;-85
2022/03/12 13:37:28;;;;;;;8.83;6.80;;;18.00;28.50;;;;;;6245060;22;20408;-85
2022/03/12 13:40:14;;;;;;;10.37;7.90;;;18.10;28.90;;;;;;6242363;23;20427;-85
2022/03/12 13:43:03;;;;;;;11.70;7.40;;;18.00;29.20;;;;;;6242623;23;20397;-84
2022/03/12 13:46:01;;;;;;;8.00;6.70;;;18.10;29.00;;;;;;6243714;23;20455;-84
2022/03/12 13:48:59;;;;;;;9.57;7.30;;;18.40;29.20;;;;;;6242719;22;20787;-85
2022/03/12 13:51:48;;;;;;;8.73;7.30;;;18.50;28.90;;;;;;6242158;23;20378;-85
2022/03/12 13:54:34;;;;;;;11.00;8.90;;;18.50;28.80;;;;;;6242965;23;20369;-85
2022/03/12 13:57:27;;;;;;;10.77;7.63;;;18.40;28.50;;;;;;6244578;22;20503;-85
2022/03/12 14:00:16;;;;;;;12.43;8.40;;;18.50;28.70;;;;;;6243727;23;21428;-86
2022/03/12 14:03:02;;;;;;;12.07;8.13;;;18.60;28.60;;;;;;6243798;23;20398;-85
2022/03/12 14:05:47;;;;;;;9.80;7.13;;;18.70;27.70;;;;;;6242772;23;20642;-85
2022/03/12 14:08:35;;;;;;;12.90;8.10;;;18.30;28.40;;;;;;6238945;22;20423;-85
2022/03/12 14:11:36;;;;;;;9.30;7.77;;;18.20;28.60;;;;;;6239696;23;20442;-84
2022/03/12 14:14:23;;;;;;;11.53;7.70;;;18.10;28.60;;;;;;6241588;23;20378;-84
2022/03/12 14:17:08;;;;;;;9.57;7.33;;;17.90;29.00;;;;;;6242862;22;20416;-84
2022/03/12 14:19:56;;;;;;;9.13;6.83;;;18.00;28.90;;;;;;6234433;22;20471;-88
2022/03/12 14:22:42;;;;;;;8.93;7.00;;;18.20;29.50;;;;;;6241467;23;20439;-86
2022/03/12 14:25:31;;;;;;;9.10;6.30;;;18.40;29.20;;;;;;6239676;23;20368;-87
2022/03/12 14:28:16;;;;;;;9.63;7.23;;;18.70;29.00;;;;;;6240398;23;20386;-88